sensor_id;sensor_type;location;lat;lon;timestamp;noise_LAeq;noise_LA_min;noise_LA_max;noise_LA01;noise_LA95
74260;Laerm;62630;55.874;37.516;2023-06-22T00:00:56;56.08;44.80;68.65;;
74260;Laerm;62630;55.874;37.516;2023-06-22T00:03:23;54.56;44.74;68.75;;
74260;Laerm;62630;55.874;37.516;2023-06-22T00:05:49;52.12;44.78;66.36;;
74260;Laerm;62630;55.874;37.516;2023-06-22T00:08:16;51.16;44.69;64.24;;
74260;Laerm;62630;55.874;37.516;2023-06-22T00:10:42;53.78;45.70;67.12;;
74260;Laerm;62630;55.874;37.516;2023-06-22T00:13:08;54.02;44.94;68.31;;
74260;Laerm;62630;55.874;37.516;2023-06-22T00:15:35;53.94;45.63;69.06;;
74260;Laerm;62630;55.874;37.516;2023-06-22T00:18:01;56.77;45.68;71.68;;
74260;Laerm;62630;55.874;37.516;2023-06-22T00:20:27;49.17;44.77;58.05;;
74260;Laerm;62630;55.874;37.516;2023-06-22T00:22:54;52.04;45.94;62.94;;
74260;Laerm;62630;55.874;37.516;2023-06-22T00:25:20;53.91;44.77;67.23;;
74260;Laerm;62630;55.874;37.516;2023-06-22T00:27:46;49.19;45.03;54.50;;
74260;Laerm;62630;55.874;37.516;2023-06-22T00:30:12;51.17;44.78;66.29;;
74260;Laerm;62630;55.874;37.516;2023-06-22T00:32:38;52.50;44.93;67.07;;
74260;Laerm;62630;55.874;37.516;2023-06-22T00:35:03;54.89;45.60;68.91;;
74260;Laerm;62630;55.874;37.516;2023-06-22T00:37:29;50.20;45.97;55.05;;
74260;Laerm;62630;55.874;37.516;2023-06-22T00:39:55;49.83;45.99;59.17;;
74260;Laerm;62630;55.874;37.516;2023-06-22T00:42:22;54.36;45.58;68.21;;
74260;Laerm;62630;55.874;37.516;2023-06-22T00:44:47;53.14;45.59;68.79;;
74260;Laerm;62630;55.874;37.516;2023-06-22T00:47:16;51.01;46.46;55.69;;
74260;Laerm;62630;55.874;37.516;2023-06-22T00:49:42;56.11;46.29;69.96;;
74260;Laerm;62630;55.874;37.516;2023-06-22T00:52:08;53.65;46.49;64.30;;
74260;Laerm;62630;55.874;37.516;2023-06-22T00:54:40;49.79;45.24;59.99;;
74260;Laerm;62630;55.874;37.516;2023-06-22T00:57:12;50.76;45.86;64.74;;
74260;Laerm;62630;55.874;37.516;2023-06-22T00:59:37;55.14;45.63;67.28;;
74260;Laerm;62630;55.874;37.516;2023-06-22T01:02:04;52.70;46.91;64.76;;
74260;Laerm;62630;55.874;37.516;2023-06-22T01:04:38;51.22;46.37;63.64;;
74260;Laerm;62630;55.874;37.516;2023-06-22T01:07:31;50.62;46.33;55.25;;
74260;Laerm;62630;55.874;37.516;2023-06-22T01:12:31;54.69;48.01;68.45;;
74260;Laerm;62630;55.874;37.516;2023-06-22T01:15:05;59.22;48.44;70.07;;
74260;Laerm;62630;55.874;37.516;2023-06-22T01:17:33;55.52;46.59;67.62;;
74260;Laerm;62630;55.874;37.516;2023-06-22T01:20:02;52.42;45.70;65.93;;
74260;Laerm;62630;55.874;37.516;2023-06-22T01:22:33;59.14;46.14;70.40;;
74260;Laerm;62630;55.874;37.516;2023-06-22T01:25:12;53.36;47.20;65.50;;
74260;Laerm;62630;55.874;37.516;2023-06-22T01:28:22;57.75;47.55;71.24;;
74260;Laerm;62630;55.874;37.516;2023-06-22T01:30:49;56.34;46.04;67.79;;
74260;Laerm;62630;55.874;37.516;2023-06-22T01:33:33;57.88;47.10;76.14;;
74260;Laerm;62630;55.874;37.516;2023-06-22T01:36:01;53.72;47.17;67.36;;
74260;Laerm;62630;55.874;37.516;2023-06-22T01:38:29;59.83;47.54;87.13;;
74260;Laerm;62630;55.874;37.516;2023-06-22T01:40:56;55.32;46.94;68.81;;
74260;Laerm;62630;55.874;37.516;2023-06-22T01:43:24;54.60;46.57;64.86;;
74260;Laerm;62630;55.874;37.516;2023-06-22T01:45:51;57.93;47.80;71.93;;
74260;Laerm;62630;55.874;37.516;2023-06-22T01:48:17;54.04;47.57;75.70;;
74260;Laerm;62630;55.874;37.516;2023-06-22T01:50:43;51.46;47.25;59.80;;
74260;Laerm;62630;55.874;37.516;2023-06-22T01:53:08;52.00;47.72;60.15;;
74260;Laerm;62630;55.874;37.516;2023-06-22T01:55:34;54.75;47.66;67.15;;
74260;Laerm;62630;55.874;37.516;2023-06-22T01:58:00;56.70;48.32;70.58;;
74260;Laerm;62630;55.874;37.516;2023-06-22T02:00:28;56.25;48.73;68.58;;
74260;Laerm;62630;55.874;37.516;2023-06-22T02:03:01;57.54;48.51;70.39;;
74260;Laerm;62630;55.874;37.516;2023-06-22T02:05:38;58.39;47.54;68.24;;
74260;Laerm;62630;55.874;37.516;2023-06-22T02:08:11;53.14;48.09;63.15;;
74260;Laerm;62630;55.874;37.516;2023-06-22T02:10:40;60.32;48.41;72.37;;
74260;Laerm;62630;55.874;37.516;2023-06-22T02:13:08;58.71;50.11;70.26;;
74260;Laerm;62630;55.874;37.516;2023-06-22T02:15:35;58.72;49.52;71.55;;
74260;Laerm;62630;55.874;37.516;2023-06-22T02:18:01;58.78;49.88;70.97;;
74260;Laerm;62630;55.874;37.516;2023-06-22T02:20:27;57.57;50.49;68.81;;
74260;Laerm;62630;55.874;37.516;2023-06-22T02:22:52;61.19;48.47;71.63;;
74260;Laerm;62630;55.874;37.516;2023-06-22T02:25:18;59.40;49.15;74.46;;
74260;Laerm;62630;55.874;37.516;2023-06-22T02:27:45;68.34;49.17;85.04;;
74260;Laerm;62630;55.874;37.516;2023-06-22T02:30:15;62.37;50.17;73.39;;
74260;Laerm;62630;55.874;37.516;2023-06-22T02:32:41;58.93;50.92;68.79;;
74260;Laerm;62630;55.874;37.516;2023-06-22T02:35:08;58.37;51.42;69.09;;
74260;Laerm;62630;55.874;37.516;2023-06-22T02:37:35;57.46;51.52;68.92;;
74260;Laerm;62630;55.874;37.516;2023-06-22T02:40:08;65.32;50.09;77.72;;
74260;Laerm;62630;55.874;37.516;2023-06-22T02:42:37;61.16;49.51;72.88;;
74260;Laerm;62630;55.874;37.516;2023-06-22T02:45:03;57.25;50.38;66.39;;
74260;Laerm;62630;55.874;37.516;2023-06-22T02:47:29;55.90;49.61;66.23;;
74260;Laerm;62630;55.874;37.516;2023-06-22T02:49:54;58.45;50.17;69.75;;
74260;Laerm;62630;55.874;37.516;2023-06-22T02:52:20;56.13;49.49;66.63;;
74260;Laerm;62630;55.874;37.516;2023-06-22T02:54:46;57.38;50.35;68.20;;
74260;Laerm;62630;55.874;37.516;2023-06-22T02:57:11;61.67;50.61;75.23;;
74260;Laerm;62630;55.874;37.516;2023-06-22T02:59:42;57.23;49.58;67.13;;
74260;Laerm;62630;55.874;37.516;2023-06-22T03:02:08;58.11;49.45;69.17;;
74260;Laerm;62630;55.874;37.516;2023-06-22T03:04:34;59.46;50.55;70.02;;
74260;Laerm;62630;55.874;37.516;2023-06-22T03:07:00;54.96;49.92;64.25;;
74260;Laerm;62630;55.874;37.516;2023-06-22T03:09:27;61.67;51.34;78.42;;
74260;Laerm;62630;55.874;37.516;2023-06-22T03:11:55;63.84;52.00;80.72;;
74260;Laerm;62630;55.874;37.516;2023-06-22T03:14:21;61.18;51.00;82.03;;
74260;Laerm;62630;55.874;37.516;2023-06-22T03:16:47;61.57;50.92;80.99;;
74260;Laerm;62630;55.874;37.516;2023-06-22T03:19:13;57.78;50.63;69.76;;
74260;Laerm;62630;55.874;37.516;2023-06-22T03:21:39;59.95;51.20;70.60;;
74260;Laerm;62630;55.874;37.516;2023-06-22T03:24:06;59.99;52.03;68.50;;
74260;Laerm;62630;55.874;37.516;2023-06-22T03:26:31;59.23;51.63;67.21;;
74260;Laerm;62630;55.874;37.516;2023-06-22T03:28:57;61.73;51.77;68.91;;
74260;Laerm;62630;55.874;37.516;2023-06-22T03:31:23;59.20;50.55;74.58;;
74260;Laerm;62630;55.874;37.516;2023-06-22T03:33:49;62.31;51.25;69.88;;
74260;Laerm;62630;55.874;37.516;2023-06-22T03:36:15;60.24;51.35;69.73;;
74260;Laerm;62630;55.874;37.516;2023-06-22T03:38:50;59.48;49.37;70.11;;
74260;Laerm;62630;55.874;37.516;2023-06-22T03:41:16;61.04;51.73;71.85;;
74260;Laerm;62630;55.874;37.516;2023-06-22T03:43:41;67.34;53.72;83.51;;
74260;Laerm;62630;55.874;37.516;2023-06-22T03:46:07;63.64;54.91;74.40;;
74260;Laerm;62630;55.874;37.516;2023-06-22T03:48:32;63.52;50.20;73.14;;
74260;Laerm;62630;55.874;37.516;2023-06-22T03:51:02;61.94;50.85;72.98;;
74260;Laerm;62630;55.874;37.516;2023-06-22T03:53:29;61.91;52.15;73.62;;
74260;Laerm;62630;55.874;37.516;2023-06-22T03:55:54;63.63;52.69;74.65;;
74260;Laerm;62630;55.874;37.516;2023-06-22T03:58:21;62.21;50.89;70.88;;
74260;Laerm;62630;55.874;37.516;2023-06-22T04:00:47;62.57;52.41;73.72;;
74260;Laerm;62630;55.874;37.516;2023-06-22T04:03:14;64.55;53.52;74.17;;
74260;Laerm;62630;55.874;37.516;2023-06-22T04:05:40;62.41;52.43;77.83;;
74260;Laerm;62630;55.874;37.516;2023-06-22T04:08:05;61.22;48.95;74.72;;
74260;Laerm;62630;55.874;37.516;2023-06-22T04:10:31;63.23;49.68;74.35;;
74260;Laerm;62630;55.874;37.516;2023-06-22T04:12:57;65.43;53.83;76.91;;
74260;Laerm;62630;55.874;37.516;2023-06-22T04:15:22;62.98;54.19;73.32;;
74260;Laerm;62630;55.874;37.516;2023-06-22T04:17:48;64.02;53.32;78.11;;
74260;Laerm;62630;55.874;37.516;2023-06-22T04:20:14;62.41;52.04;81.77;;
74260;Laerm;62630;55.874;37.516;2023-06-22T04:22:40;65.65;52.65;82.72;;
74260;Laerm;62630;55.874;37.516;2023-06-22T04:25:09;63.86;53.48;76.24;;
74260;Laerm;62630;55.874;37.516;2023-06-22T04:27:34;61.93;52.71;72.56;;
74260;Laerm;62630;55.874;37.516;2023-06-22T04:30:07;63.69;53.74;71.37;;
74260;Laerm;62630;55.874;37.516;2023-06-22T04:32:34;64.26;53.29;73.52;;
74260;Laerm;62630;55.874;37.516;2023-06-22T04:35:02;66.30;51.70;81.00;;
74260;Laerm;62630;55.874;37.516;2023-06-22T04:37:29;63.04;55.51;70.73;;
74260;Laerm;62630;55.874;37.516;2023-06-22T04:39:55;62.52;49.94;70.98;;
74260;Laerm;62630;55.874;37.516;2023-06-22T04:42:21;62.62;54.93;70.57;;
74260;Laerm;62630;55.874;37.516;2023-06-22T04:44:46;62.76;54.09;70.43;;
74260;Laerm;62630;55.874;37.516;2023-06-22T04:47:12;64.76;54.73;73.11;;
74260;Laerm;62630;55.874;37.516;2023-06-22T04:49:37;64.40;52.40;75.64;;
74260;Laerm;62630;55.874;37.516;2023-06-22T04:52:04;66.61;52.74;89.02;;
74260;Laerm;62630;55.874;37.516;2023-06-22T04:54:30;63.65;54.74;71.50;;
74260;Laerm;62630;55.874;37.516;2023-06-22T04:57:05;64.54;56.12;71.06;;
74260;Laerm;62630;55.874;37.516;2023-06-22T04:59:35;64.44;55.70;72.31;;
74260;Laerm;62630;55.874;37.516;2023-06-22T05:02:02;64.61;56.22;74.32;;
74260;Laerm;62630;55.874;37.516;2023-06-22T05:04:29;63.57;51.24;72.40;;
74260;Laerm;62630;55.874;37.516;2023-06-22T05:06:57;64.50;52.91;77.70;;
74260;Laerm;62630;55.874;37.516;2023-06-22T05:09:23;62.49;50.95;72.14;;
74260;Laerm;62630;55.874;37.516;2023-06-22T05:11:50;63.64;54.21;77.65;;
74260;Laerm;62630;55.874;37.516;2023-06-22T05:14:16;64.99;55.18;73.40;;
74260;Laerm;62630;55.874;37.516;2023-06-22T05:16:42;64.42;54.01;73.04;;
74260;Laerm;62630;55.874;37.516;2023-06-22T05:19:08;65.31;57.51;73.13;;
74260;Laerm;62630;55.874;37.516;2023-06-22T05:21:33;63.99;53.86;72.61;;
74260;Laerm;62630;55.874;37.516;2023-06-22T05:23:59;62.98;52.91;71.04;;
74260;Laerm;62630;55.874;37.516;2023-06-22T05:26:28;62.64;53.43;79.35;;
74260;Laerm;62630;55.874;37.516;2023-06-22T05:28:53;64.73;52.85;74.59;;
74260;Laerm;62630;55.874;37.516;2023-06-22T05:31:19;67.15;57.64;77.47;;
74260;Laerm;62630;55.874;37.516;2023-06-22T05:33:46;64.73;54.28;74.24;;
74260;Laerm;62630;55.874;37.516;2023-06-22T05:36:12;63.38;52.16;70.85;;
74260;Laerm;62630;55.874;37.516;2023-06-22T05:38:39;66.10;52.69;77.46;;
74260;Laerm;62630;55.874;37.516;2023-06-22T05:41:04;64.18;52.87;72.14;;
74260;Laerm;62630;55.874;37.516;2023-06-22T05:43:30;63.82;53.82;72.86;;
74260;Laerm;62630;55.874;37.516;2023-06-22T05:45:56;64.51;54.57;79.11;;
74260;Laerm;62630;55.874;37.516;2023-06-22T05:48:22;66.78;55.68;77.79;;
74260;Laerm;62630;55.874;37.516;2023-06-22T05:50:48;66.71;56.42;82.78;;
74260;Laerm;62630;55.874;37.516;2023-06-22T05:53:13;66.05;56.04;79.74;;
74260;Laerm;62630;55.874;37.516;2023-06-22T05:55:39;61.50;50.58;76.28;;
74260;Laerm;62630;55.874;37.516;2023-06-22T05:58:04;62.56;50.21;72.58;;
74260;Laerm;62630;55.874;37.516;2023-06-22T06:00:30;63.32;53.90;74.76;;
74260;Laerm;62630;55.874;37.516;2023-06-22T06:02:56;67.04;54.03;78.19;;
74260;Laerm;62630;55.874;37.516;2023-06-22T06:05:22;63.40;53.76;72.87;;
74260;Laerm;62630;55.874;37.516;2023-06-22T06:07:49;63.85;51.87;73.50;;
74260;Laerm;62630;55.874;37.516;2023-06-22T06:10:14;67.44;56.51;77.30;;
74260;Laerm;62630;55.874;37.516;2023-06-22T06:12:40;64.48;55.52;71.83;;
74260;Laerm;62630;55.874;37.516;2023-06-22T06:15:06;64.79;52.94;73.81;;
74260;Laerm;62630;55.874;37.516;2023-06-22T06:17:35;63.76;54.62;73.55;;
74260;Laerm;62630;55.874;37.516;2023-06-22T06:20:00;64.44;52.74;75.51;;
74260;Laerm;62630;55.874;37.516;2023-06-22T06:22:26;69.80;57.66;84.62;;
74260;Laerm;62630;55.874;37.516;2023-06-22T06:24:52;64.06;52.62;76.08;;
74260;Laerm;62630;55.874;37.516;2023-06-22T06:27:17;68.97;53.51;78.82;;
74260;Laerm;62630;55.874;37.516;2023-06-22T06:29:44;62.91;53.30;76.38;;
74260;Laerm;62630;55.874;37.516;2023-06-22T06:32:11;63.78;55.08;76.99;;
74260;Laerm;62630;55.874;37.516;2023-06-22T06:34:36;66.40;54.24;83.54;;
74260;Laerm;62630;55.874;37.516;2023-06-22T06:37:03;63.62;53.73;73.66;;
74260;Laerm;62630;55.874;37.516;2023-06-22T06:39:28;70.82;56.22;80.76;;
74260;Laerm;62630;55.874;37.516;2023-06-22T06:41:54;68.31;55.95;81.48;;
74260;Laerm;62630;55.874;37.516;2023-06-22T06:44:19;64.90;51.91;79.58;;
74260;Laerm;62630;55.874;37.516;2023-06-22T06:46:45;63.94;53.91;72.77;;
74260;Laerm;62630;55.874;37.516;2023-06-22T06:49:10;64.76;54.68;76.74;;
74260;Laerm;62630;55.874;37.516;2023-06-22T06:51:36;61.63;49.76;70.29;;
74260;Laerm;62630;55.874;37.516;2023-06-22T06:54:02;64.47;54.48;83.91;;
74260;Laerm;62630;55.874;37.516;2023-06-22T06:56:28;65.44;55.00;78.28;;
74260;Laerm;62630;55.874;37.516;2023-06-22T06:58:55;73.26;55.18;83.92;;
74260;Laerm;62630;55.874;37.516;2023-06-22T07:01:21;65.74;52.63;81.73;;
74260;Laerm;62630;55.874;37.516;2023-06-22T07:03:46;64.53;55.01;74.79;;
74260;Laerm;62630;55.874;37.516;2023-06-22T07:06:13;63.24;54.84;71.58;;
74260;Laerm;62630;55.874;37.516;2023-06-22T07:08:39;63.81;54.04;77.52;;
74260;Laerm;62630;55.874;37.516;2023-06-22T07:11:05;63.34;52.55;86.36;;
74260;Laerm;62630;55.874;37.516;2023-06-22T07:13:31;64.08;55.71;75.88;;
74260;Laerm;62630;55.874;37.516;2023-06-22T07:15:56;66.88;56.00;82.76;;
74260;Laerm;62630;55.874;37.516;2023-06-22T07:18:23;66.69;57.03;79.90;;
74260;Laerm;62630;55.874;37.516;2023-06-22T07:20:48;64.05;55.68;75.33;;
74260;Laerm;62630;55.874;37.516;2023-06-22T07:23:16;63.72;51.73;70.83;;
74260;Laerm;62630;55.874;37.516;2023-06-22T07:25:42;63.86;51.61;73.94;;
74260;Laerm;62630;55.874;37.516;2023-06-22T07:28:08;61.94;52.63;71.46;;
74260;Laerm;62630;55.874;37.516;2023-06-22T07:30:34;65.70;53.07;79.25;;
74260;Laerm;62630;55.874;37.516;2023-06-22T07:33:00;63.15;54.31;72.09;;
74260;Laerm;62630;55.874;37.516;2023-06-22T07:35:32;63.24;55.39;75.81;;
74260;Laerm;62630;55.874;37.516;2023-06-22T07:37:58;63.34;54.28;71.88;;
74260;Laerm;62630;55.874;37.516;2023-06-22T07:40:24;63.66;55.35;79.02;;
74260;Laerm;62630;55.874;37.516;2023-06-22T07:42:49;62.46;53.81;70.36;;
74260;Laerm;62630;55.874;37.516;2023-06-22T07:45:17;63.27;55.24;70.91;;
74260;Laerm;62630;55.874;37.516;2023-06-22T07:47:42;61.32;53.45;69.13;;
74260;Laerm;62630;55.874;37.516;2023-06-22T07:50:09;63.17;54.92;79.60;;
74260;Laerm;62630;55.874;37.516;2023-06-22T07:52:34;64.81;55.36;74.20;;
74260;Laerm;62630;55.874;37.516;2023-06-22T07:55:00;63.75;55.18;72.39;;
74260;Laerm;62630;55.874;37.516;2023-06-22T07:57:26;64.57;55.50;73.23;;
74260;Laerm;62630;55.874;37.516;2023-06-22T07:59:58;62.70;53.77;74.29;;
74260;Laerm;62630;55.874;37.516;2023-06-22T08:02:24;63.33;54.89;74.16;;
74260;Laerm;62630;55.874;37.516;2023-06-22T08:04:50;64.63;52.61;78.11;;
74260;Laerm;62630;55.874;37.516;2023-06-22T08:07:15;63.48;51.87;72.21;;
74260;Laerm;62630;55.874;37.516;2023-06-22T08:09:46;62.46;52.80;75.35;;
74260;Laerm;62630;55.874;37.516;2023-06-22T08:12:12;62.65;53.71;72.87;;
74260;Laerm;62630;55.874;37.516;2023-06-22T08:14:38;62.68;53.86;77.24;;
74260;Laerm;62630;55.874;37.516;2023-06-22T08:17:04;67.13;55.47;78.78;;
74260;Laerm;62630;55.874;37.516;2023-06-22T08:19:30;67.28;52.60;77.04;;
74260;Laerm;62630;55.874;37.516;2023-06-22T08:21:56;62.49;52.20;71.73;;
74260;Laerm;62630;55.874;37.516;2023-06-22T08:24:21;64.58;54.03;71.86;;
74260;Laerm;62630;55.874;37.516;2023-06-22T08:26:47;65.47;57.32;76.67;;
74260;Laerm;62630;55.874;37.516;2023-06-22T08:29:13;65.72;56.33;73.35;;
74260;Laerm;62630;55.874;37.516;2023-06-22T08:31:38;67.63;56.69;77.31;;
74260;Laerm;62630;55.874;37.516;2023-06-22T08:34:04;66.08;56.96;74.47;;
74260;Laerm;62630;55.874;37.516;2023-06-22T08:36:29;62.80;53.49;72.93;;
74260;Laerm;62630;55.874;37.516;2023-06-22T08:38:58;65.05;55.11;75.88;;
74260;Laerm;62630;55.874;37.516;2023-06-22T08:41:28;61.41;53.37;72.81;;
74260;Laerm;62630;55.874;37.516;2023-06-22T08:43:53;62.60;54.33;75.97;;
74260;Laerm;62630;55.874;37.516;2023-06-22T08:46:19;63.89;57.85;78.00;;
74260;Laerm;62630;55.874;37.516;2023-06-22T08:48:48;69.71;56.87;93.89;;
74260;Laerm;62630;55.874;37.516;2023-06-22T08:51:14;68.21;55.92;88.25;;
74260;Laerm;62630;55.874;37.516;2023-06-22T08:53:40;63.39;52.73;74.73;;
74260;Laerm;62630;55.874;37.516;2023-06-22T08:56:05;64.54;54.94;74.16;;
74260;Laerm;62630;55.874;37.516;2023-06-22T08:58:31;63.15;54.33;71.53;;
74260;Laerm;62630;55.874;37.516;2023-06-22T09:00:56;65.23;51.58;82.55;;
74260;Laerm;62630;55.874;37.516;2023-06-22T09:03:22;67.29;53.08;84.25;;
74260;Laerm;62630;55.874;37.516;2023-06-22T09:05:52;63.13;53.06;72.03;;
74260;Laerm;62630;55.874;37.516;2023-06-22T09:08:17;64.10;55.10;73.11;;
74260;Laerm;62630;55.874;37.516;2023-06-22T09:10:43;63.88;51.50;77.11;;
74260;Laerm;62630;55.874;37.516;2023-06-22T09:13:09;62.40;52.55;72.32;;
74260;Laerm;62630;55.874;37.516;2023-06-22T09:15:34;65.05;54.40;78.23;;
74260;Laerm;62630;55.874;37.516;2023-06-22T09:18:00;62.54;53.47;72.91;;
74260;Laerm;62630;55.874;37.516;2023-06-22T09:20:25;81.20;56.41;101.34;;
74260;Laerm;62630;55.874;37.516;2023-06-22T09:22:51;63.87;55.19;75.10;;
74260;Laerm;62630;55.874;37.516;2023-06-22T09:25:17;64.39;55.77;81.84;;
74260;Laerm;62630;55.874;37.516;2023-06-22T09:27:46;62.68;53.29;71.96;;
74260;Laerm;62630;55.874;37.516;2023-06-22T09:30:12;60.52;51.32;71.90;;
74260;Laerm;62630;55.874;37.516;2023-06-22T09:32:37;63.63;51.26;74.22;;
74260;Laerm;62630;55.874;37.516;2023-06-22T09:35:04;61.38;52.72;68.47;;
74260;Laerm;62630;55.874;37.516;2023-06-22T09:37:34;62.07;51.56;70.36;;
74260;Laerm;62630;55.874;37.516;2023-06-22T09:40:01;62.47;51.99;73.28;;
74260;Laerm;62630;55.874;37.516;2023-06-22T09:42:26;65.84;56.46;76.72;;
74260;Laerm;62630;55.874;37.516;2023-06-22T09:44:52;61.09;52.54;71.73;;
74260;Laerm;62630;55.874;37.516;2023-06-22T09:47:17;64.04;53.78;83.02;;
74260;Laerm;62630;55.874;37.516;2023-06-22T09:49:43;65.52;52.67;79.07;;
74260;Laerm;62630;55.874;37.516;2023-06-22T09:52:08;64.61;54.41;76.84;;
74260;Laerm;62630;55.874;37.516;2023-06-22T09:54:34;62.84;51.89;73.73;;
74260;Laerm;62630;55.874;37.516;2023-06-22T09:57:00;67.05;58.43;83.44;;
74260;Laerm;62630;55.874;37.516;2023-06-22T09:59:25;63.49;55.68;70.82;;
74260;Laerm;62630;55.874;37.516;2023-06-22T10:01:51;64.24;54.03;74.50;;
74260;Laerm;62630;55.874;37.516;2023-06-22T10:04:16;62.08;52.93;74.84;;
74260;Laerm;62630;55.874;37.516;2023-06-22T10:06:42;61.37;51.47;68.85;;
74260;Laerm;62630;55.874;37.516;2023-06-22T10:09:08;68.47;51.60;90.91;;
74260;Laerm;62630;55.874;37.516;2023-06-22T10:11:33;62.17;51.88;72.39;;
74260;Laerm;62630;55.874;37.516;2023-06-22T10:14:00;64.92;55.51;76.28;;
74260;Laerm;62630;55.874;37.516;2023-06-22T10:16:32;63.32;51.71;73.10;;
74260;Laerm;62630;55.874;37.516;2023-06-22T10:18:58;61.52;51.22;73.87;;
74260;Laerm;62630;55.874;37.516;2023-06-22T10:21:24;63.54;54.27;73.00;;
74260;Laerm;62630;55.874;37.516;2023-06-22T10:23:52;62.51;52.80;72.01;;
74260;Laerm;62630;55.874;37.516;2023-06-22T10:26:17;61.13;50.21;67.93;;
74260;Laerm;62630;55.874;37.516;2023-06-22T10:28:43;62.07;51.99;80.89;;
74260;Laerm;62630;55.874;37.516;2023-06-22T10:31:08;69.23;54.09;92.37;;
74260;Laerm;62630;55.874;37.516;2023-06-22T10:33:34;63.74;53.21;84.01;;
74260;Laerm;62630;55.874;37.516;2023-06-22T10:36:00;65.21;54.47;76.88;;
74260;Laerm;62630;55.874;37.516;2023-06-22T10:38:25;68.42;53.05;80.99;;
74260;Laerm;62630;55.874;37.516;2023-06-22T10:40:51;63.40;50.49;74.27;;
74260;Laerm;62630;55.874;37.516;2023-06-22T10:43:16;64.28;54.25;73.15;;
74260;Laerm;62630;55.874;37.516;2023-06-22T10:45:42;62.09;54.03;72.63;;
74260;Laerm;62630;55.874;37.516;2023-06-22T10:48:07;63.37;53.24;71.27;;
74260;Laerm;62630;55.874;37.516;2023-06-22T10:50:33;61.33;53.09;69.10;;
74260;Laerm;62630;55.874;37.516;2023-06-22T10:52:59;64.70;52.15;77.43;;
74260;Laerm;62630;55.874;37.516;2023-06-22T10:55:24;65.16;56.83;74.53;;
74260;Laerm;62630;55.874;37.516;2023-06-22T10:57:50;64.70;53.40;76.61;;
74260;Laerm;62630;55.874;37.516;2023-06-22T11:00:16;65.25;55.52;78.90;;
74260;Laerm;62630;55.874;37.516;2023-06-22T11:02:42;63.36;53.52;75.18;;
74260;Laerm;62630;55.874;37.516;2023-06-22T11:05:08;62.44;53.34;74.64;;
74260;Laerm;62630;55.874;37.516;2023-06-22T11:07:33;64.46;54.82;73.20;;
74260;Laerm;62630;55.874;37.516;2023-06-22T11:09:59;62.21;52.65;70.81;;
74260;Laerm;62630;55.874;37.516;2023-06-22T11:12:24;63.04;54.79;69.99;;
74260;Laerm;62630;55.874;37.516;2023-06-22T11:14:51;62.43;53.81;72.09;;
74260;Laerm;62630;55.874;37.516;2023-06-22T11:17:17;65.27;53.64;73.75;;
74260;Laerm;62630;55.874;37.516;2023-06-22T11:19:44;69.31;54.90;87.09;;
74260;Laerm;62630;55.874;37.516;2023-06-22T11:22:10;62.00;52.97;74.54;;
74260;Laerm;62630;55.874;37.516;2023-06-22T11:24:35;64.44;56.36;72.62;;
74260;Laerm;62630;55.874;37.516;2023-06-22T11:27:01;65.79;56.57;74.60;;
74260;Laerm;62630;55.874;37.516;2023-06-22T11:29:26;65.46;57.22;74.12;;
74260;Laerm;62630;55.874;37.516;2023-06-22T11:31:52;65.16;56.59;73.88;;
74260;Laerm;62630;55.874;37.516;2023-06-22T11:34:17;63.13;55.99;71.45;;
74260;Laerm;62630;55.874;37.516;2023-06-22T11:36:44;63.71;53.64;72.16;;
74260;Laerm;62630;55.874;37.516;2023-06-22T11:39:10;65.23;55.23;79.33;;
74260;Laerm;62630;55.874;37.516;2023-06-22T11:41:36;65.13;54.59;76.45;;
74260;Laerm;62630;55.874;37.516;2023-06-22T11:44:01;66.42;53.71;77.02;;
74260;Laerm;62630;55.874;37.516;2023-06-22T11:46:27;65.29;55.08;76.13;;
74260;Laerm;62630;55.874;37.516;2023-06-22T11:48:52;70.82;59.45;80.60;;
74260;Laerm;62630;55.874;37.516;2023-06-22T11:51:18;65.37;56.38;79.32;;
74260;Laerm;62630;55.874;37.516;2023-06-22T11:53:44;65.66;55.56;87.13;;
74260;Laerm;62630;55.874;37.516;2023-06-22T11:56:09;72.30;55.36;85.61;;
74260;Laerm;62630;55.874;37.516;2023-06-22T11:58:37;68.54;55.26;76.34;;
74260;Laerm;62630;55.874;37.516;2023-06-22T12:01:03;66.84;55.32;75.24;;
74260;Laerm;62630;55.874;37.516;2023-06-22T12:03:28;69.73;58.86;78.84;;
74260;Laerm;62630;55.874;37.516;2023-06-22T12:05:55;68.25;59.05;84.13;;
74260;Laerm;62630;55.874;37.516;2023-06-22T12:08:21;64.71;54.94;74.86;;
74260;Laerm;62630;55.874;37.516;2023-06-22T12:10:46;65.49;55.91;78.44;;
74260;Laerm;62630;55.874;37.516;2023-06-22T12:13:12;65.52;56.87;73.96;;
74260;Laerm;62630;55.874;37.516;2023-06-22T12:15:38;65.15;55.57;74.70;;
74260;Laerm;62630;55.874;37.516;2023-06-22T12:18:03;66.69;56.00;79.51;;
74260;Laerm;62630;55.874;37.516;2023-06-22T12:20:29;65.36;53.32;77.58;;
74260;Laerm;62630;55.874;37.516;2023-06-22T12:22:55;62.94;52.20;74.30;;
74260;Laerm;62630;55.874;37.516;2023-06-22T12:25:23;61.71;54.43;71.07;;
74260;Laerm;62630;55.874;37.516;2023-06-22T12:27:48;62.69;52.32;72.81;;
74260;Laerm;62630;55.874;37.516;2023-06-22T12:30:16;68.45;56.67;75.63;;
74260;Laerm;62630;55.874;37.516;2023-06-22T12:32:42;66.13;56.47;73.25;;
74260;Laerm;62630;55.874;37.516;2023-06-22T12:35:08;65.09;51.97;73.43;;
74260;Laerm;62630;55.874;37.516;2023-06-22T12:37:40;67.08;54.65;73.76;;
74260;Laerm;62630;55.874;37.516;2023-06-22T12:40:06;65.10;54.05;84.35;;
74260;Laerm;62630;55.874;37.516;2023-06-22T12:42:32;62.47;50.77;76.10;;
74260;Laerm;62630;55.874;37.516;2023-06-22T12:44:57;66.02;55.51;74.92;;
74260;Laerm;62630;55.874;37.516;2023-06-22T12:47:23;65.03;54.54;76.13;;
74260;Laerm;62630;55.874;37.516;2023-06-22T12:49:48;64.35;53.98;73.59;;
74260;Laerm;62630;55.874;37.516;2023-06-22T12:52:15;65.27;56.42;72.56;;
74260;Laerm;62630;55.874;37.516;2023-06-22T12:54:41;65.71;54.36;73.65;;
74260;Laerm;62630;55.874;37.516;2023-06-22T12:57:06;62.13;51.29;70.98;;
74260;Laerm;62630;55.874;37.516;2023-06-22T12:59:32;63.20;53.24;76.59;;
74260;Laerm;62630;55.874;37.516;2023-06-22T13:01:57;64.66;56.38;74.08;;
74260;Laerm;62630;55.874;37.516;2023-06-22T13:04:23;62.53;54.83;70.12;;
74260;Laerm;62630;55.874;37.516;2023-06-22T13:06:48;62.83;55.63;73.27;;
74260;Laerm;62630;55.874;37.516;2023-06-22T13:09:15;64.71;54.22;81.04;;
74260;Laerm;62630;55.874;37.516;2023-06-22T13:11:42;60.58;51.97;72.10;;
74260;Laerm;62630;55.874;37.516;2023-06-22T13:14:07;63.07;53.94;71.47;;
74260;Laerm;62630;55.874;37.516;2023-06-22T13:16:33;61.92;51.66;70.96;;
74260;Laerm;62630;55.874;37.516;2023-06-22T13:18:58;63.33;52.09;71.22;;
74260;Laerm;62630;55.874;37.516;2023-06-22T13:21:24;64.66;54.15;77.89;;
74260;Laerm;62630;55.874;37.516;2023-06-22T13:23:49;64.99;55.69;80.95;;
74260;Laerm;62630;55.874;37.516;2023-06-22T13:26:15;61.94;52.62;69.32;;
74260;Laerm;62630;55.874;37.516;2023-06-22T13:28:41;62.75;52.69;71.94;;
74260;Laerm;62630;55.874;37.516;2023-06-22T13:31:06;64.66;52.45;80.64;;